Time;durP1;ratioP1;P1;durP2;ratioP2;P2;SDS_P1;SDS_P2;PMS_P1;PMS_P2;Temp;Humidity;BMP_temperature;BMP_pressure;BME280_temperature;BME280_humidity;BME280_pressure;Samples;Min_cycle;Max_cycle;Signal;HPM_P1;HPM_P2
2022/02/06 00:01:25;;;;;;;4.50;2.90;;;2.40;99.90;;;;;;4973155;28;20176;-65
2022/02/06 00:03:57;;;;;;;5.00;2.53;;;2.40;99.90;;;;;;4972975;28;20192;-65
2022/02/06 00:06:22;;;;;;;5.20;2.43;;;2.40;99.90;;;;;;4972927;28;20179;-65
2022/02/06 00:08:48;;;;;;;3.80;2.53;;;2.40;99.90;;;;;;4973077;28;20423;-65
2022/02/06 00:11:13;;;;;;;3.30;2.77;;;2.40;99.90;;;;;;4973064;28;20279;-65
2022/02/06 00:13:39;;;;;;;4.13;2.63;;;2.40;99.90;;;;;;4972922;28;20666;-65
2022/02/06 00:16:04;;;;;;;7.87;3.00;;;2.50;99.90;;;;;;4972724;28;20239;-65
2022/02/06 00:18:30;;;;;;;5.10;2.23;;;2.50;99.90;;;;;;4972922;28;20176;-65
2022/02/06 00:20:59;;;;;;;4.50;2.57;;;2.50;99.90;;;;;;4972907;28;20212;-65
2022/02/06 00:23:27;;;;;;;4.93;2.23;;;2.50;99.90;;;;;;4972669;28;20196;-65
2022/02/06 00:26:02;;;;;;;2.40;1.87;;;2.50;99.90;;;;;;4972536;28;20470;-65
2022/02/06 00:31:08;;;;;;;9.60;3.10;;;2.60;99.90;;;;;;4972658;28;20455;-65
2022/02/06 00:39:01;;;;;;;4.33;1.90;;;2.70;99.90;;;;;;4972667;28;20638;-65
2022/02/06 00:41:15;;;;;;;3.83;2.00;;;2.70;99.90;;;;;;4972650;28;20436;-65
2022/02/06 00:43:42;;;;;;;3.67;2.10;;;2.70;99.90;;;;;;4972703;28;20452;-65
2022/02/06 00:46:09;;;;;;;4.77;2.30;;;2.70;99.90;;;;;;4972367;28;20507;-65
2022/02/06 00:48:40;;;;;;;5.90;2.07;;;2.80;99.90;;;;;;4972582;28;20817;-65
2022/02/06 00:51:16;;;;;;;4.13;2.10;;;2.80;99.90;;;;;;4972592;28;21292;-65
2022/02/06 00:53:42;;;;;;;4.33;2.17;;;2.80;99.90;;;;;;4972538;28;20442;-65
2022/02/06 00:56:09;;;;;;;2.57;1.97;;;2.90;99.90;;;;;;4974468;28;20416;-65
2022/02/06 00:58:35;;;;;;;5.30;2.10;;;2.80;99.90;;;;;;4976349;28;20424;-65
2022/02/06 01:01:01;;;;;;;2.47;2.00;;;2.90;99.90;;;;;;4976276;28;20478;-65
2022/02/06 01:03:27;;;;;;;2.77;2.23;;;2.90;99.90;;;;;;4976181;28;20199;-65
2022/02/06 01:05:52;;;;;;;4.70;2.30;;;2.90;99.90;;;;;;4975972;28;20180;-65
2022/02/06 01:08:18;;;;;;;5.37;2.17;;;2.90;99.90;;;;;;4976162;28;20459;-65
2022/02/06 01:10:44;;;;;;;4.37;2.10;;;2.90;99.90;;;;;;4976174;28;20247;-65
2022/02/06 01:15:54;;;;;;;4.60;2.47;;;3.00;99.90;;;;;;4975795;28;20168;-65
2022/02/06 01:18:29;;;;;;;3.90;2.10;;;3.00;99.90;;;;;;4976101;28;20951;-65
2022/02/06 01:21:03;;;;;;;6.47;2.20;;;3.00;99.90;;;;;;4976123;28;20921;-65
2022/02/06 01:23:54;;;;;;;5.53;2.00;;;3.00;99.90;;;;;;4975742;28;20867;-65
2022/02/06 01:26:36;;;;;;;7.83;2.60;;;3.00;99.90;;;;;;4975903;28;20798;-65
2022/02/06 01:29:11;;;;;;;7.80;2.30;;;3.00;99.90;;;;;;4975941;28;20797;-66
2022/02/06 01:34:06;;;;;;;3.00;2.53;;;3.00;99.90;;;;;;4975651;28;20464;-65
2022/02/06 01:36:41;;;;;;;4.50;2.03;;;3.00;99.90;;;;;;4975398;28;20441;-65
2022/02/06 01:41:42;;;;;;;4.43;2.30;;;3.00;99.90;;;;;;4975752;28;20424;-65
2022/02/06 01:44:23;;;;;;;3.37;2.03;;;3.00;99.90;;;;;;4975511;28;20443;-65
2022/02/06 01:57:21;;;;;;;4.90;1.67;;;3.00;99.90;;;;;;4975370;28;20419;-65
2022/02/06 02:06:16;;;;;;;8.13;2.90;;;2.90;99.90;;;;;;4975021;28;20424;-65
2022/02/06 02:48:02;;;;;;;3.00;1.70;;;3.40;99.90;;;;;;4974390;28;20952;-65
2022/02/06 02:50:30;;;;;;;5.20;2.20;;;3.40;99.90;;;;;;4974415;28;20849;-65
2022/02/06 02:55:48;;;;;;;5.63;1.80;;;3.40;99.90;;;;;;4974337;28;21079;-65
2022/02/06 03:03:46;;;;;;;5.20;1.53;;;3.50;99.90;;;;;;4971841;28;20458;-65
2022/02/06 03:06:12;;;;;;;2.90;1.40;;;3.40;99.90;;;;;;4973507;28;20428;-65
2022/02/06 03:08:39;;;;;;;2.63;1.50;;;3.50;99.90;;;;;;4974331;28;20176;-65
2022/02/06 03:11:08;;;;;;;3.30;1.40;;;3.50;99.90;;;;;;4974120;28;20598;-65
2022/02/06 03:16:29;;;;;;;5.00;1.87;;;3.50;99.90;;;;;;4973667;28;20424;-65
2022/02/06 03:19:02;;;;;;;2.83;1.40;;;3.50;99.90;;;;;;4973500;28;20928;-65
2022/02/06 03:21:29;;;;;;;2.30;1.33;;;3.50;99.90;;;;;;4973904;28;20426;-65
2022/02/06 03:24:10;;;;;;;3.10;2.80;;;3.50;99.90;;;;;;4974013;28;20850;-65
2022/02/06 03:26:36;;;;;;;3.67;1.27;;;3.50;99.90;;;;;;4973536;28;20459;-66
2022/02/06 03:29:02;;;;;;;1.90;1.47;;;3.50;99.90;;;;;;4973702;28;20841;-65
2022/02/06 03:31:27;;;;;;;8.87;1.97;;;3.50;99.90;;;;;;4973577;28;20207;-66
2022/02/06 03:33:53;;;;;;;3.90;1.70;;;3.50;99.90;;;;;;4973636;28;20442;-66
2022/02/06 03:36:19;;;;;;;5.00;1.60;;;3.50;99.90;;;;;;4973293;28;20227;-65
2022/02/06 03:38:47;;;;;;;11.73;2.30;;;3.50;99.90;;;;;;4973542;28;20188;-65
2022/02/06 03:41:15;;;;;;;7.40;2.03;;;3.50;99.90;;;;;;4973546;28;20451;-66
2022/02/06 03:46:17;;;;;;;8.20;2.00;;;3.60;99.90;;;;;;4973158;28;20424;-65
2022/02/06 03:48:53;;;;;;;2.53;1.30;;;3.50;99.90;;;;;;4973372;28;21158;-65
2022/02/06 03:51:22;;;;;;;1.87;1.60;;;3.50;99.90;;;;;;4973234;28;20486;-65
2022/02/06 03:53:50;;;;;;;3.23;1.40;;;3.60;99.90;;;;;;4973256;28;20443;-65
2022/02/06 03:56:18;;;;;;;4.37;1.20;;;3.50;99.90;;;;;;4972955;28;20964;-65
2022/02/06 03:58:44;;;;;;;1.93;1.53;;;3.50;99.90;;;;;;4973219;28;20427;-66
2022/02/06 04:01:09;;;;;;;3.87;1.70;;;3.50;99.90;;;;;;4973074;28;20431;-66
2022/02/06 04:03:35;;;;;;;3.63;1.77;;;3.60;99.90;;;;;;4973001;28;20210;-65
2022/02/06 04:06:00;;;;;;;4.83;1.97;;;3.60;99.90;;;;;;4971472;28;20191;-65
2022/02/06 04:08:28;;;;;;;2.83;1.50;;;3.70;99.90;;;;;;4973459;28;20184;-66
2022/02/06 04:10:54;;;;;;;6.50;1.73;;;3.70;99.90;;;;;;4972996;28;20203;-66
2022/02/06 04:13:23;;;;;;;4.07;1.53;;;3.70;99.90;;;;;;4972993;28;20435;-65
2022/02/06 04:15:56;;;;;;;2.90;1.20;;;3.70;99.90;;;;;;4972682;28;20164;-66
2022/02/06 04:18:35;;;;;;;3.03;1.60;;;3.70;99.90;;;;;;4973174;28;20910;-65
2022/02/06 04:21:02;;;;;;;5.23;2.17;;;3.80;99.90;;;;;;4972946;28;20506;-66
2022/02/06 04:23:29;;;;;;;5.17;1.60;;;3.80;99.90;;;;;;4972779;28;20450;-66
2022/02/06 04:25:55;;;;;;;3.20;1.77;;;3.90;99.90;;;;;;4972624;28;20426;-66
2022/02/06 04:28:21;;;;;;;1.87;1.53;;;3.90;99.90;;;;;;4972886;28;20777;-65
2022/02/06 04:30:46;;;;;;;2.80;1.80;;;3.90;99.90;;;;;;4974355;28;20207;-66
2022/02/06 04:33:12;;;;;;;4.47;1.60;;;3.90;99.90;;;;;;4976848;28;20203;-66
2022/02/06 04:35:39;;;;;;;2.00;1.40;;;3.90;99.90;;;;;;4976580;28;20518;-66
2022/02/06 04:38:32;;;;;;;4.23;1.40;;;3.90;99.90;;;;;;4976859;28;20160;-65
2022/02/06 04:41:09;;;;;;;2.10;1.27;;;3.90;99.90;;;;;;4976762;28;20439;-66
2022/02/06 04:54:20;;;;;;;2.03;1.60;;;4.00;99.90;;;;;;4976432;28;20447;-66
2022/02/06 05:13:43;;;;;;;2.13;1.40;;;4.00;99.90;;;;;;4976260;28;20445;-65
2022/02/06 05:24:03;;;;;;;3.70;2.93;;;4.10;99.90;;;;;;4976266;28;20447;-65
2022/02/06 05:29:18;;;;;;;2.93;2.13;;;4.10;99.90;;;;;;4975957;28;20755;-65
2022/02/06 05:32:35;;;;;;;4.00;2.00;;;4.10;99.90;;;;;;4976198;28;20467;-67
2022/02/06 05:34:29;;;;;;;3.73;1.70;;;4.10;99.90;;;;;;4971985;28;20973;-66
2022/02/06 05:36:54;;;;;;;2.83;1.70;;;4.10;99.90;;;;;;4975540;28;20420;-66
2022/02/06 05:39:20;;;;;;;2.43;1.80;;;4.20;99.90;;;;;;4975807;28;20172;-65
2022/02/06 05:41:45;;;;;;;6.63;2.07;;;4.20;99.90;;;;;;4975751;28;20174;-66
2022/02/06 05:44:11;;;;;;;3.17;2.00;;;4.20;99.90;;;;;;4975563;28;20238;-67
2022/02/06 05:46:36;;;;;;;1.67;1.30;;;4.20;99.90;;;;;;4975523;28;20204;-66
2022/02/06 05:49:02;;;;;;;4.27;1.67;;;4.30;99.90;;;;;;4975688;28;20250;-66
2022/02/06 05:51:28;;;;;;;2.33;1.40;;;4.30;99.90;;;;;;4975495;28;20290;-66
2022/02/06 05:53:54;;;;;;;4.50;1.97;;;4.20;99.90;;;;;;4975609;28;20200;-65
2022/02/06 05:56:19;;;;;;;2.70;2.00;;;4.20;99.90;;;;;;4975326;28;20574;-66
2022/02/06 05:58:45;;;;;;;2.83;1.63;;;4.20;99.90;;;;;;4975406;28;20164;-67
2022/02/06 06:01:11;;;;;;;7.20;1.97;;;4.20;99.90;;;;;;4975361;28;20187;-66
2022/02/06 06:03:37;;;;;;;5.10;1.70;;;4.20;99.90;;;;;;4975435;28;20818;-66
2022/02/06 06:06:03;;;;;;;5.03;1.70;;;4.20;99.90;;;;;;4975067;28;20420;-67
2022/02/06 06:08:29;;;;;;;1.50;1.30;;;4.20;99.90;;;;;;4975389;28;20431;-66
2022/02/06 06:10:55;;;;;;;2.80;1.53;;;4.30;99.90;;;;;;4975106;28;20512;-66
2022/02/06 06:13:20;;;;;;;2.60;1.60;;;4.30;99.90;;;;;;4975096;28;20608;-66
2022/02/06 06:15:46;;;;;;;2.43;1.60;;;4.30;99.90;;;;;;4974884;28;20506;-67
2022/02/06 06:18:14;;;;;;;2.90;1.40;;;4.30;99.90;;;;;;4975218;28;20177;-67
2022/02/06 06:20:40;;;;;;;5.43;2.13;;;4.30;99.90;;;;;;4975127;28;20169;-67
2022/02/06 06:23:06;;;;;;;4.50;1.77;;;4.30;99.90;;;;;;4974998;28;20470;-66
2022/02/06 06:25:39;;;;;;;2.67;1.40;;;4.30;99.90;;;;;;4974743;28;20424;-67
2022/02/06 06:28:06;;;;;;;2.90;1.20;;;4.30;99.90;;;;;;4975087;28;20172;-67
2022/02/06 06:30:35;;;;;;;6.53;2.07;;;4.30;99.90;;;;;;4975146;28;20522;-67
2022/02/06 06:33:01;;;;;;;1.70;1.27;;;4.20;99.90;;;;;;4975044;28;20964;-65
2022/02/06 06:35:27;;;;;;;7.23;3.00;;;4.30;99.90;;;;;;4974681;28;20457;-65
2022/02/06 06:37:52;;;;;;;4.60;2.00;;;4.30;99.90;;;;;;4974962;28;20439;-67
2022/02/06 06:40:18;;;;;;;3.50;1.60;;;4.30;99.90;;;;;;4974921;28;20172;-66
2022/02/06 06:42:44;;;;;;;3.83;1.30;;;4.30;99.90;;;;;;4974807;28;20215;-66
2022/02/06 06:45:10;;;;;;;2.27;1.90;;;4.30;99.90;;;;;;4974527;28;20168;-65
2022/02/06 06:47:35;;;;;;;3.33;1.73;;;4.30;99.90;;;;;;4974752;28;20184;-67
2022/02/06 06:50:04;;;;;;;2.30;1.30;;;4.40;99.90;;;;;;4974619;28;20787;-67
2022/02/06 06:52:30;;;;;;;7.00;1.70;;;4.30;99.90;;;;;;4974245;28;20278;-67
2022/02/06 06:55:02;;;;;;;3.83;1.30;;;4.40;99.90;;;;;;4974179;28;20582;-65
2022/02/06 06:57:37;;;;;;;4.53;1.33;;;4.40;99.90;;;;;;4974529;28;20165;-66
2022/02/06 07:02:32;;;;;;;1.87;1.43;;;4.40;99.90;;;;;;4974534;28;20427;-66
2022/02/06 07:05:05;;;;;;;4.67;2.30;;;4.50;99.90;;;;;;4974202;28;20431;-66
2022/02/06 07:07:32;;;;;;;2.60;1.13;;;4.50;99.90;;;;;;4974492;28;20704;-67
2022/02/06 07:09:58;;;;;;;2.33;1.70;;;4.50;99.90;;;;;;4974358;28;20557;-66
2022/02/06 07:12:23;;;;;;;3.57;2.10;;;4.60;99.90;;;;;;4974125;28;20969;-66
2022/02/06 07:14:50;;;;;;;2.07;1.40;;;4.60;99.90;;;;;;4974109;28;20184;-66
2022/02/06 07:17:17;;;;;;;3.53;1.60;;;4.60;99.90;;;;;;4972638;28;20195;-67
2022/02/06 07:19:44;;;;;;;6.13;1.60;;;4.70;99.90;;;;;;4974147;28;20420;-66
2022/02/06 07:22:14;;;;;;;6.03;1.63;;;4.70;99.90;;;;;;4973995;28;20431;-65
2022/02/06 07:24:40;;;;;;;5.57;1.80;;;4.70;99.90;;;;;;4974146;28;20883;-66
2022/02/06 07:27:29;;;;;;;6.43;1.93;;;4.70;99.90;;;;;;4973712;28;20600;-66
2022/02/06 07:29:56;;;;;;;5.10;1.83;;;4.80;99.90;;;;;;4973912;28;20267;-66
2022/02/06 07:32:23;;;;;;;4.53;1.50;;;4.80;99.90;;;;;;4974007;28;20550;-66
2022/02/06 07:34:49;;;;;;;8.17;2.00;;;4.80;99.90;;;;;;4973798;28;20502;-66
2022/02/06 07:37:14;;;;;;;4.13;2.27;;;4.80;99.90;;;;;;4973680;28;20419;-66
2022/02/06 07:39:40;;;;;;;2.70;1.70;;;4.80;99.90;;;;;;4988691;28;20459;-66
2022/02/06 07:42:09;;;;;;;2.40;1.93;;;4.80;99.90;;;;;;4973670;28;20271;-66
2022/02/06 07:44:35;;;;;;;4.43;1.70;;;4.90;99.90;;;;;;4973564;28;20223;-65
2022/02/06 07:47:11;;;;;;;5.33;2.07;;;4.90;99.90;;;;;;4973276;28;20427;-66
2022/02/06 07:49:36;;;;;;;2.70;1.43;;;4.90;99.90;;;;;;4973658;28;20419;-67
2022/02/06 07:52:03;;;;;;;5.07;1.60;;;4.90;99.90;;;;;;4973429;28;20844;-66
2022/02/06 07:54:28;;;;;;;2.30;1.40;;;5.00;99.90;;;;;;4973496;28;20247;-66
2022/02/06 07:56:54;;;;;;;2.10;1.50;;;5.00;99.90;;;;;;4973151;28;20423;-65
2022/02/06 07:59:20;;;;;;;9.13;2.17;;;5.10;99.90;;;;;;4973349;28;20219;-67
2022/02/06 08:01:46;;;;;;;5.83;2.00;;;5.10;99.90;;;;;;4973507;28;20624;-66
2022/02/06 08:04:11;;;;;;;3.83;1.57;;;5.20;99.90;;;;;;4972959;28;20538;-66
2022/02/06 08:06:37;;;;;;;4.63;2.07;;;5.20;99.90;;;;;;4972656;28;20207;-66
2022/02/06 08:09:03;;;;;;;9.47;2.47;;;5.30;99.90;;;;;;4973330;28;20183;-66
2022/02/06 08:11:29;;;;;;;4.70;1.70;;;5.30;99.90;;;;;;4973269;28;20283;-67
2022/02/06 08:13:56;;;;;;;5.60;1.40;;;5.30;99.90;;;;;;4973151;28;20458;-66
2022/02/06 08:16:22;;;;;;;2.33;1.80;;;5.40;99.90;;;;;;4972961;28;20172;-66
2022/02/06 08:18:47;;;;;;;3.43;1.63;;;5.40;99.90;;;;;;4973159;28;20451;-66
2022/02/06 08:21:13;;;;;;;10.00;1.93;;;5.50;99.90;;;;;;4973320;28;20180;-66
2022/02/06 08:23:39;;;;;;;4.23;1.70;;;5.50;99.90;;;;;;4973433;28;20200;-67
2022/02/06 08:26:06;;;;;;;5.30;1.97;;;5.60;99.90;;;;;;4972963;28;20194;-66
2022/02/06 08:28:32;;;;;;;4.33;1.77;;;5.60;99.90;;;;;;4973196;28;20498;-65
2022/02/06 08:30:59;;;;;;;2.47;1.50;;;5.60;99.90;;;;;;4973089;28;20470;-66
2022/02/06 08:33:25;;;;;;;3.90;1.60;;;5.60;99.90;;;;;;4973089;28;20466;-66
2022/02/06 08:35:54;;;;;;;3.40;1.30;;;5.60;99.90;;;;;;4972796;28;20423;-66
2022/02/06 08:38:19;;;;;;;2.27;1.50;;;5.80;99.90;;;;;;4973163;28;20614;-66
2022/02/06 08:40:45;;;;;;;3.70;1.80;;;5.90;99.90;;;;;;4972999;28;20535;-66
2022/02/06 08:43:11;;;;;;;4.40;2.83;;;6.30;99.90;;;;;;4972967;28;20204;-66
2022/02/06 08:45:38;;;;;;;5.40;1.63;;;6.70;99.90;;;;;;4972742;28;20596;-65
2022/02/06 08:48:04;;;;;;;3.87;1.33;;;6.90;99.90;;;;;;4972929;28;20187;-66
2022/02/06 08:50:29;;;;;;;5.80;2.20;;;7.00;99.90;;;;;;4972948;28;20948;-66
2022/02/06 08:52:59;;;;;;;3.47;1.70;;;7.50;99.90;;;;;;4972896;28;20479;-65
2022/02/06 08:55:28;;;;;;;5.43;1.43;;;8.10;99.90;;;;;;4972593;28;20173;-66
2022/02/06 08:57:54;;;;;;;3.27;1.40;;;8.20;99.90;;;;;;4972939;28;20447;-66
2022/02/06 09:00:21;;;;;;;1.50;1.10;;;7.90;99.90;;;;;;4972876;28;20462;-66
2022/02/06 09:02:48;;;;;;;4.00;2.07;;;7.70;99.90;;;;;;4972800;28;20450;-66
2022/02/06 09:05:14;;;;;;;5.63;1.63;;;7.40;99.90;;;;;;4972645;28;20936;-66
2022/02/06 09:07:41;;;;;;;1.63;1.53;;;7.30;99.90;;;;;;4972852;28;20416;-65
2022/02/06 09:10:08;;;;;;;1.80;1.13;;;7.10;99.90;;;;;;4972732;28;20251;-66
2022/02/06 09:12:36;;;;;;;3.83;1.57;;;7.00;99.90;;;;;;4972595;28;20509;-67
2022/02/06 09:15:02;;;;;;;2.07;1.40;;;7.00;99.90;;;;;;4972455;28;20423;-66
2022/02/06 09:17:28;;;;;;;6.30;1.43;;;7.00;99.90;;;;;;4975417;28;20423;-67
2022/02/06 09:19:54;;;;;;;3.27;2.20;;;6.90;99.90;;;;;;4976350;28;20415;-67
2022/02/06 09:22:20;;;;;;;4.60;2.00;;;6.70;99.90;;;;;;4976421;28;20647;-66
2022/02/06 09:24:45;;;;;;;2.67;2.43;;;6.60;99.90;;;;;;4976061;28;20457;-66
2022/02/06 09:27:12;;;;;;;3.40;1.70;;;6.50;99.90;;;;;;4975952;28;20180;-66
2022/02/06 09:29:40;;;;;;;4.53;2.07;;;6.50;99.90;;;;;;4976105;28;20177;-66
2022/02/06 09:37:05;;;;;;;5.33;1.77;;;6.40;99.90;;;;;;4975673;28;20514;-67
2022/02/06 09:39:34;;;;;;;4.47;1.57;;;6.40;99.90;;;;;;4975908;28;20899;-66
2022/02/06 09:42:01;;;;;;;4.03;1.60;;;6.40;99.90;;;;;;4975854;28;20478;-66
2022/02/06 09:44:28;;;;;;;4.67;0.93;;;6.50;99.90;;;;;;4975888;28;20968;-67
2022/02/06 09:46:55;;;;;;;1.37;1.20;;;6.50;99.90;;;;;;4975505;28;20431;-67
2022/02/06 09:49:22;;;;;;;2.60;2.27;;;6.50;99.90;;;;;;4975880;28;20459;-66
2022/02/06 09:51:48;;;;;;;5.70;1.43;;;6.60;99.90;;;;;;4975605;28;20979;-66
2022/02/06 09:54:14;;;;;;;1.97;1.43;;;6.60;99.90;;;;;;4975558;28;20456;-65
2022/02/06 09:56:45;;;;;;;7.03;2.37;;;6.60;99.90;;;;;;4975506;28;20177;-66
2022/02/06 09:59:20;;;;;;;1.93;1.10;;;6.60;99.90;;;;;;4975771;28;20169;-67
2022/02/06 10:01:55;;;;;;;5.70;1.73;;;6.60;99.90;;;;;;4975615;28;20455;-66
2022/02/06 10:04:31;;;;;;;9.73;3.47;;;6.60;99.90;;;;;;4975390;28;20436;-66
2022/02/06 10:07:07;;;;;;;2.50;1.20;;;6.60;99.90;;;;;;4975742;28;20489;-66
2022/02/06 10:10:14;;;;;;;1.60;1.27;;;6.60;99.90;;;;;;4975417;28;20837;-65
2022/02/06 10:12:43;;;;;;;6.27;1.60;;;6.90;99.90;;;;;;4972223;28;20475;-65
2022/02/06 10:15:15;;;;;;;3.30;1.33;;;6.90;99.90;;;;;;4975058;28;20535;-65
2022/02/06 10:17:41;;;;;;;3.60;1.30;;;6.90;99.90;;;;;;4975436;28;20536;-65
2022/02/06 10:20:15;;;;;;;2.43;1.30;;;7.00;99.90;;;;;;4975261;28;21156;-65
2022/02/06 10:23:04;;;;;;;8.40;2.83;;;7.10;99.90;;;;;;4975132;28;20171;-65
2022/02/06 10:25:27;;;;;;;1.70;1.10;;;7.10;99.90;;;;;;4974603;28;20431;-65
2022/02/06 10:28:21;;;;;;;3.13;1.10;;;7.10;99.90;;;;;;4974309;28;20420;-65
2022/02/06 10:30:51;;;;;;;4.67;1.10;;;7.00;99.90;;;;;;4975030;28;20490;-65
2022/02/06 10:33:21;;;;;;;3.90;1.50;;;7.00;99.90;;;;;;4975011;28;20549;-66
2022/02/06 10:35:51;;;;;;;4.20;1.63;;;7.10;99.90;;;;;;4974788;28;20820;-65
2022/02/06 10:38:17;;;;;;;4.50;2.03;;;7.10;99.90;;;;;;4975012;28;20755;-65
2022/02/06 10:40:44;;;;;;;1.30;1.20;;;7.10;99.90;;;;;;4974847;28;20431;-65
2022/02/06 10:43:11;;;;;;;1.50;1.00;;;7.00;99.90;;;;;;4974828;28;20196;-65
2022/02/06 10:45:38;;;;;;;2.20;1.17;;;7.00;99.90;;;;;;4974570;28;20411;-65
2022/02/06 10:48:18;;;;;;;1.47;1.30;;;7.10;99.90;;;;;;4974561;28;20431;-65
2022/02/06 10:50:43;;;;;;;5.43;1.50;;;7.20;99.90;;;;;;4974633;28;21048;-65
2022/02/06 10:53:11;;;;;;;3.10;1.30;;;7.30;99.90;;;;;;4974475;28;20444;-65
2022/02/06 10:56:04;;;;;;;3.33;2.27;;;7.40;99.90;;;;;;4974233;28;20639;-65
2022/02/06 10:58:34;;;;;;;3.90;1.23;;;7.60;99.90;;;;;;4974442;28;20428;-66
2022/02/06 11:01:25;;;;;;;2.80;1.40;;;8.00;99.90;;;;;;4974511;28;20447;-65
2022/02/06 11:04:07;;;;;;;2.50;1.60;;;8.30;99.90;;;;;;4974419;28;20454;-66
2022/02/06 11:09:27;;;;;;;2.63;1.47;;;8.70;99.90;;;;;;4974633;28;20431;-65
2022/02/06 11:11:57;;;;;;;5.03;1.20;;;8.40;99.90;;;;;;4974280;28;20518;-65
2022/02/06 11:14:24;;;;;;;3.13;2.20;;;8.30;99.90;;;;;;4974065;28;20446;-65
2022/02/06 11:16:50;;;;;;;1.43;1.00;;;8.30;99.90;;;;;;4974023;28;20819;-65
2022/02/06 11:19:20;;;;;;;2.80;1.17;;;8.20;99.90;;;;;;4974157;28;20430;-65
2022/02/06 11:22:05;;;;;;;1.93;1.20;;;8.10;99.90;;;;;;4974079;28;20451;-65
2022/02/06 11:24:36;;;;;;;2.20;1.10;;;8.00;99.90;;;;;;4973950;28;20964;-65
2022/02/06 11:27:02;;;;;;;7.10;1.50;;;7.80;99.90;;;;;;4973811;28;20490;-65
2022/02/06 11:29:30;;;;;;;3.23;1.17;;;7.80;99.90;;;;;;4973699;28;20412;-65
2022/02/06 11:31:57;;;;;;;4.40;1.33;;;7.80;99.90;;;;;;4973778;28;20491;-65
2022/02/06 11:34:23;;;;;;;2.97;1.20;;;7.80;99.90;;;;;;4973842;28;20447;-65
2022/02/06 11:45:59;;;;;;;3.60;1.40;;;7.60;99.90;;;;;;4973325;28;20412;-65
2022/02/06 11:48:29;;;;;;;2.00;1.17;;;7.60;99.90;;;;;;4973583;28;20497;-66
2022/02/06 11:50:55;;;;;;;3.00;1.37;;;7.60;99.90;;;;;;4973741;28;20479;-65
2022/02/06 11:53:38;;;;;;;1.77;1.27;;;7.60;99.90;;;;;;4973531;28;20435;-65
2022/02/06 11:56:32;;;;;;;5.60;1.47;;;7.60;99.90;;;;;;4973408;28;20416;-65
2022/02/06 11:59:13;;;;;;;3.23;0.90;;;7.60;99.90;;;;;;4973577;28;20420;-65
2022/02/06 12:01:42;;;;;;;2.63;1.10;;;7.50;99.90;;;;;;4973533;28;20420;-65
2022/02/06 12:04:19;;;;;;;1.17;0.80;;;7.40;99.90;;;;;;4973488;28;20443;-65
2022/02/06 12:06:47;;;;;;;1.20;1.10;;;7.30;99.90;;;;;;4973211;28;20407;-65
2022/02/06 12:09:18;;;;;;;2.07;1.20;;;7.30;99.90;;;;;;4973344;28;20490;-66
2022/02/06 12:12:08;;;;;;;1.63;1.37;;;7.30;99.90;;;;;;4973266;28;20462;-65
2022/02/06 12:14:39;;;;;;;1.33;1.07;;;7.30;99.90;;;;;;4973200;28;20896;-65
2022/02/06 12:18:05;;;;;;;2.13;1.10;;;7.30;99.90;;;;;;4972945;28;20416;-65
2022/02/06 12:20:13;;;;;;;3.37;1.87;;;7.40;99.90;;;;;;4966099;28;20794;-65
2022/02/06 12:22:44;;;;;;;5.90;1.47;;;7.40;99.90;;;;;;4973211;28;20426;-65
2022/02/06 12:25:31;;;;;;;3.40;2.00;;;7.40;99.90;;;;;;4988025;28;20419;-65
2022/02/06 12:28:20;;;;;;;3.50;1.40;;;7.40;99.90;;;;;;4973306;28;20799;-65
2022/02/06 12:30:47;;;;;;;0.93;0.77;;;7.50;99.90;;;;;;4973107;28;20524;-65
2022/02/06 12:33:35;;;;;;;1.97;1.10;;;7.50;99.90;;;;;;4973165;28;20945;-65
2022/02/06 12:38:44;;;;;;;1.10;1.00;;;7.50;99.90;;;;;;4973195;28;20458;-66
2022/02/06 12:41:30;;;;;;;1.97;0.87;;;7.50;99.90;;;;;;4973112;28;20909;-66
2022/02/06 12:44:02;;;;;;;1.43;1.03;;;7.50;99.90;;;;;;4973078;28;20741;-66
2022/02/06 12:46:29;;;;;;;3.27;1.60;;;7.70;99.90;;;;;;4972885;28;20427;-66
2022/02/06 12:49:02;;;;;;;10.03;2.37;;;7.90;99.90;;;;;;4972880;28;20446;-66
2022/02/06 12:51:29;;;;;;;1.00;0.83;;;8.20;99.90;;;;;;4974136;28;20494;-66
2022/02/06 12:54:03;;;;;;;3.80;1.00;;;8.30;99.90;;;;;;4976954;28;20443;-66
2022/02/06 12:56:33;;;;;;;2.17;1.00;;;8.20;99.90;;;;;;4976641;28;20422;-66
2022/02/06 12:59:00;;;;;;;2.60;1.10;;;8.00;99.90;;;;;;4976823;28;20415;-66
2022/02/06 13:01:40;;;;;;;2.30;1.17;;;7.80;99.90;;;;;;4976708;28;20423;-66
2022/02/06 13:04:10;;;;;;;1.67;0.87;;;7.70;99.90;;;;;;4976721;28;20493;-66
2022/02/06 13:06:38;;;;;;;1.23;0.77;;;7.60;99.90;;;;;;4976427;28;20427;-66
2022/02/06 13:09:10;;;;;;;1.87;1.00;;;7.40;99.90;;;;;;4976663;28;20481;-66
2022/02/06 13:15:08;;;;;;;2.80;1.43;;;7.20;99.90;;;;;;4976799;28;20489;-66
2022/02/06 13:17:34;;;;;;;1.13;0.80;;;7.10;99.90;;;;;;4976304;28;20420;-65
2022/02/06 13:22:52;;;;;;;1.27;1.07;;;7.00;99.90;;;;;;4976712;28;20399;-66
2022/02/06 13:38:50;;;;;;;1.50;1.00;;;6.70;99.90;;;;;;4976042;28;20982;-66
2022/02/06 13:41:19;;;;;;;3.87;1.23;;;6.70;99.90;;;;;;4975913;28;20412;-66
2022/02/06 13:43:48;;;;;;;2.13;1.00;;;6.70;99.90;;;;;;4975706;28;20439;-66
2022/02/06 13:46:26;;;;;;;1.00;0.63;;;6.60;99.90;;;;;;4975574;28;20419;-66
2022/02/06 13:48:52;;;;;;;2.13;0.90;;;6.60;99.90;;;;;;4975652;28;20443;-66
2022/02/06 13:51:36;;;;;;;1.93;0.90;;;6.50;99.90;;;;;;4975667;28;20482;-66
2022/02/06 13:54:04;;;;;;;1.80;0.87;;;6.40;99.90;;;;;;4975746;28;20436;-66
2022/02/06 13:56:31;;;;;;;2.73;1.37;;;6.40;99.90;;;;;;4975472;28;20424;-66
2022/02/06 13:59:18;;;;;;;1.07;0.80;;;6.30;99.90;;;;;;4975751;28;20961;-66
2022/02/06 14:01:51;;;;;;;2.00;0.87;;;6.30;99.90;;;;;;4975632;28;20894;-66
2022/02/06 14:04:33;;;;;;;1.10;0.70;;;6.20;99.90;;;;;;4974340;28;20447;-66
2022/02/06 14:07:09;;;;;;;1.30;0.90;;;6.20;99.90;;;;;;4975336;28;20430;-66
2022/02/06 14:12:08;;;;;;;1.20;0.90;;;6.00;99.90;;;;;;4975506;28;20542;-66
2022/02/06 14:14:54;;;;;;;1.67;0.90;;;5.90;99.90;;;;;;4975434;28;20438;-66
2022/02/06 14:17:38;;;;;;;2.27;1.20;;;5.90;99.90;;;;;;4975256;28;20427;-66
2022/02/06 14:20:17;;;;;;;3.43;1.37;;;5.90;99.90;;;;;;4975467;28;20423;-66
2022/02/06 14:22:48;;;;;;;5.70;1.13;;;5.80;99.90;;;;;;4975246;28;20954;-66
2022/02/06 14:25:36;;;;;;;1.77;0.70;;;5.70;99.90;;;;;;4974988;28;20423;-66
2022/02/06 14:28:26;;;;;;;2.63;0.90;;;5.70;99.90;;;;;;4975312;28;20499;-66
2022/02/06 14:30:53;;;;;;;0.80;0.60;;;5.70;99.90;;;;;;4967658;28;20640;-66
2022/02/06 14:33:27;;;;;;;1.50;1.40;;;5.70;99.90;;;;;;4974971;28;20444;-66
2022/02/06 14:36:00;;;;;;;1.40;1.00;;;5.60;99.90;;;;;;4974902;28;20802;-66
2022/02/06 14:38:41;;;;;;;1.10;0.70;;;5.60;99.90;;;;;;4975096;28;20775;-66
2022/02/06 14:43:58;;;;;;;2.10;0.80;;;5.50;99.90;;;;;;4975204;28;20447;-66
2022/02/06 14:46:25;;;;;;;0.83;0.83;;;5.50;99.90;;;;;;4974590;28;20506;-66
2022/02/06 14:48:51;;;;;;;2.40;1.30;;;5.40;99.90;;;;;;4974788;28;20972;-66
2022/02/06 14:51:18;;;;;;;0.67;0.67;;;5.40;99.90;;;;;;4974664;28;20502;-66
2022/02/06 14:53:44;;;;;;;1.13;1.00;;;5.40;99.90;;;;;;4974678;28;20712;-66
2022/02/06 14:56:11;;;;;;;0.93;0.60;;;5.40;99.90;;;;;;4974455;28;20420;-66
2022/02/06 14:58:37;;;;;;;1.20;1.10;;;5.30;99.90;;;;;;4974641;28;20181;-66
2022/02/06 15:01:03;;;;;;;1.00;0.80;;;5.30;99.90;;;;;;4974476;28;20427;-66
2022/02/06 15:03:28;;;;;;;1.30;0.63;;;5.30;99.90;;;;;;4974459;28;20810;-66
2022/02/06 15:05:54;;;;;;;1.70;0.60;;;5.30;99.90;;;;;;4974223;28;20319;-66
2022/02/06 15:08:20;;;;;;;3.90;1.00;;;5.20;99.90;;;;;;4974412;28;20189;-66
2022/02/06 15:10:47;;;;;;;1.00;0.60;;;5.20;99.90;;;;;;4974353;28;20184;-66
2022/02/06 15:13:13;;;;;;;1.00;0.57;;;5.20;99.90;;;;;;4974284;28;20956;-66
2022/02/06 15:15:56;;;;;;;1.00;0.90;;;5.20;99.90;;;;;;4973677;28;20424;-66
2022/02/06 15:20:53;;;;;;;1.00;0.90;;;5.10;99.90;;;;;;4974376;28;20940;-66
2022/02/06 15:23:21;;;;;;;2.50;0.67;;;5.10;99.90;;;;;;4974091;28;20189;-66
2022/02/06 15:25:47;;;;;;;0.60;0.60;;;5.10;99.90;;;;;;4973787;28;20420;-66
2022/02/06 15:28:12;;;;;;;0.97;0.90;;;5.00;99.90;;;;;;4974154;28;20790;-66
2022/02/06 15:30:38;;;;;;;1.33;0.90;;;5.00;99.90;;;;;;4973920;28;20176;-66
2022/02/06 15:33:05;;;;;;;1.10;0.80;;;5.00;99.90;;;;;;4973845;28;20216;-66
2022/02/06 15:35:35;;;;;;;2.53;1.33;;;5.00;99.90;;;;;;4973639;28;20458;-66
2022/02/06 15:38:03;;;;;;;3.03;0.87;;;5.00;99.90;;;;;;4973771;28;20430;-66
2022/02/06 15:40:32;;;;;;;0.80;0.77;;;5.00;99.90;;;;;;4973773;28;20503;-66
2022/02/06 15:42:58;;;;;;;2.60;1.80;;;5.00;99.90;;;;;;4973743;28;20435;-66
2022/02/06 15:45:24;;;;;;;1.53;0.90;;;4.90;99.90;;;;;;4973415;28;20419;-66
2022/02/06 15:47:50;;;;;;;1.03;0.60;;;4.90;99.90;;;;;;4973561;28;20223;-66
2022/02/06 15:50:15;;;;;;;0.70;0.63;;;4.90;99.90;;;;;;4973878;28;20467;-66
2022/02/06 15:52:42;;;;;;;0.77;0.70;;;4.90;99.90;;;;;;4973621;28;20664;-66
2022/02/06 15:55:08;;;;;;;1.00;0.60;;;4.90;99.90;;;;;;4973331;28;20462;-67
2022/02/06 15:57:34;;;;;;;1.03;0.80;;;4.90;99.90;;;;;;4973629;28;20172;-66
2022/02/06 16:00:00;;;;;;;5.10;1.47;;;4.90;99.90;;;;;;4973529;28;20431;-66
2022/02/06 16:02:26;;;;;;;0.70;0.70;;;4.90;99.90;;;;;;4973516;28;20172;-66
2022/02/06 16:04:51;;;;;;;0.90;0.80;;;4.90;99.90;;;;;;4973761;28;20431;-67